Terminal Aerodrome Forecast
Issued by NWS

Home | Current Version | Previous Version | Text Only | Print | Product List | Glossary On
Versions: 1 2 3 4 5 6 7 8 9 10 11 12 13 14 15 16
000
FTUS43 KDTX 291127
TAFMBS
TAF
KMBS 291127Z 2912/3012 21010KT P6SM SCT250
     FM291400 21014G22KT P6SM BKN200
     FM291800 22019G29KT P6SM OVC150
     FM292100 22020G32KT 3SM -SHRASN OVC015
     FM300000 24015G24KT 2SM -DZ BR OVC007
     FM300600 23012KT P6SM OVC010=

USA.gov is the U.S. government's official web portal to all federal, state and local government web resources and services.